createdAt,value
2022-11-04T00:04:01.583Z,7.83
2022-11-04T00:09:06.099Z,7.93
2022-11-04T00:14:10.363Z,7.80
2022-11-04T00:19:14.646Z,8.33
2022-11-04T00:24:34.893Z,8.33
2022-11-04T00:29:37.655Z,9.30
2022-11-04T00:34:41.750Z,8.70
2022-11-04T00:39:44.487Z,9.43
2022-11-04T00:44:47.244Z,9.90
2022-11-04T00:49:51.601Z,10.10
2022-11-04T00:54:54.337Z,9.40
2022-11-04T00:59:57.127Z,10.93
2022-11-04T01:05:01.203Z,11.03
2022-11-04T01:10:04.277Z,12.13
2022-11-04T01:15:07.883Z,12.53
2022-11-04T01:20:13.860Z,12.27
2022-11-04T01:25:16.698Z,13.13
2022-11-04T01:30:19.596Z,13.77
2022-11-04T01:35:23.711Z,14.37
2022-11-04T01:40:26.577Z,14.63
2022-11-04T01:45:29.344Z,15.30
2022-11-04T01:50:35.518Z,15.57
2022-11-04T01:55:42.927Z,14.73
2022-11-04T02:00:45.986Z,15.63
2022-11-04T02:05:50.405Z,16.33
2022-11-04T02:10:59.005Z,15.77
2022-11-04T02:16:11.554Z,15.60
2022-11-04T02:21:54.691Z,15.77
2022-11-04T02:27:17.665Z,15.90
2022-11-04T02:32:28.426Z,17.13
2022-11-04T02:37:38.260Z,17.07
2022-11-04T02:42:54.050Z,17.97
2022-11-04T02:48:04.714Z,17.37
2022-11-04T02:53:15.333Z,17.03
2022-11-04T02:58:23.146Z,18.03
2022-11-04T03:03:29.486Z,17.40
2022-11-04T03:08:34.972Z,18.90
2022-11-04T03:13:42.213Z,19.43
2022-11-04T03:18:56.822Z,18.30
2022-11-04T03:23:59.759Z,18.30
2022-11-04T03:29:18.686Z,18.80
2022-11-04T03:34:22.839Z,21.10
2022-11-04T03:39:25.986Z,19.57
2022-11-04T03:44:30.568Z,18.23
2022-11-04T03:49:34.751Z,19.42
2022-11-04T03:54:37.601Z,19.80
2022-11-04T04:00:02.232Z,19.87
2022-11-04T04:05:16.004Z,19.13
2022-11-04T04:10:41.910Z,20.27
2022-11-04T04:15:48.626Z,20.10
2022-11-04T04:20:55.641Z,20.37
2022-11-04T04:26:20.931Z,19.37
2022-11-04T04:31:44.033Z,21.93
2022-11-04T04:36:52.661Z,21.17
2022-11-04T04:42:13.431Z,26.00
2022-11-04T04:47:20.043Z,31.20
2022-11-04T04:52:27.164Z,22.27
2022-11-04T04:57:29.981Z,25.63
2022-11-04T05:02:32.981Z,32.03
2022-11-04T05:07:37.135Z,31.17
2022-11-04T05:12:58.993Z,33.97
2022-11-04T05:18:03.475Z,35.37
2022-11-04T05:23:07.976Z,35.07
2022-11-04T05:28:10.955Z,34.77
2022-11-04T05:33:14.005Z,37.97
2022-11-04T05:38:18.099Z,39.07
2022-11-04T05:43:20.973Z,39.27
2022-11-04T05:48:23.697Z,41.93
2022-11-04T05:58:35.968Z,42.47
2022-11-04T06:03:38.769Z,41.17
2022-11-04T06:08:45.336Z,42.67
2022-11-04T06:13:48.374Z,41.37
2022-11-04T06:18:51.543Z,40.83
2022-11-04T06:23:57.708Z,40.97
2022-11-04T06:29:00.460Z,40.23
2022-11-04T06:34:03.228Z,40.27
2022-11-04T06:39:07.389Z,38.93
2022-11-04T06:44:10.213Z,37.63
2022-11-04T06:49:16.008Z,37.93
2022-11-04T06:54:20.496Z,38.43
2022-11-04T06:59:23.986Z,35.47
2022-11-04T07:04:26.772Z,28.20
2022-11-04T07:09:30.865Z,30.37
2022-11-04T07:14:33.780Z,30.20
2022-11-04T07:19:36.586Z,27.23
2022-11-04T07:24:40.665Z,26.50
2022-11-04T07:29:43.460Z,22.48
2022-11-04T07:34:46.204Z,19.38
2022-11-04T07:39:50.293Z,18.45
2022-11-04T07:44:53.036Z,19.20
2022-11-04T07:49:55.828Z,16.40
2022-11-04T07:55:00.002Z,15.93
2022-11-04T08:00:03.303Z,16.63
2022-11-04T08:05:06.833Z,16.33
2022-11-04T08:10:11.427Z,18.05
2022-11-04T08:15:14.190Z,18.38
2022-11-04T08:20:17.557Z,18.52
2022-11-04T08:25:21.637Z,14.70
2022-11-04T08:30:24.455Z,14.60
2022-11-04T08:35:27.289Z,18.02
2022-11-04T08:40:31.373Z,16.38
2022-11-04T08:45:34.149Z,11.43
2022-11-04T08:50:37.188Z,10.95
2022-11-04T08:55:41.278Z,11.50
2022-11-04T09:00:44.212Z,10.30
2022-11-04T09:05:49.081Z,10.30
2022-11-04T09:10:53.447Z,10.52
2022-11-04T09:15:56.183Z,7.57
2022-11-04T09:21:01.390Z,6.57
2022-11-04T09:26:11.107Z,5.65
2022-11-04T09:31:15.885Z,5.10
2022-11-04T09:36:18.941Z,5.07
2022-11-04T09:41:45.823Z,5.53
2022-11-04T09:46:50.396Z,5.20
2022-11-04T09:51:55.850Z,5.95
2022-11-04T09:57:04.652Z,5.20
2022-11-04T10:02:43.199Z,6.20
2022-11-04T10:07:59.166Z,5.57
2022-11-04T10:13:16.669Z,6.28
2022-11-04T10:18:30.434Z,6.87
2022-11-04T10:23:35.335Z,7.80
2022-11-04T10:28:43.647Z,8.47
2022-11-04T10:33:51.557Z,7.23
2022-11-04T10:38:56.061Z,7.27
2022-11-04T10:44:04.561Z,7.33
2022-11-04T10:49:29.945Z,5.77
2022-11-04T10:54:37.407Z,6.40
2022-11-04T10:59:52.104Z,5.87
2022-11-04T11:05:15.954Z,5.90
2022-11-04T11:10:21.511Z,6.10
2022-11-04T11:15:32.714Z,5.63
2022-11-04T11:20:38.230Z,5.83
2022-11-04T11:25:45.312Z,5.50
2022-11-04T11:30:59.009Z,5.20
2022-11-04T11:36:06.815Z,5.10
2022-11-04T11:41:28.990Z,5.30
2022-11-04T11:46:36.999Z,4.63
2022-11-04T11:51:40.595Z,4.97
2022-11-04T11:57:12.040Z,5.00
2022-11-04T12:02:26.490Z,4.70
2022-11-04T12:13:23.794Z,4.70
2022-11-04T12:18:51.394Z,5.47
2022-11-04T12:23:57.164Z,4.90
2022-11-04T12:29:16.655Z,5.57
2022-11-04T12:34:39.864Z,4.37
2022-11-04T12:39:57.949Z,3.43
2022-11-04T12:45:19.323Z,2.80
2022-11-04T12:50:43.535Z,3.50
2022-11-04T12:55:56.837Z,3.83
2022-11-04T13:01:05.047Z,3.80
2022-11-04T13:06:17.376Z,4.83
2022-11-04T13:11:25.867Z,3.80
2022-11-04T13:16:32.576Z,4.50
2022-11-04T13:21:39.172Z,4.80
2022-11-04T13:26:41.978Z,4.80
2022-11-04T13:31:50.842Z,5.30
2022-11-04T13:37:07.866Z,5.80
2022-11-04T13:42:42.852Z,6.13
2022-11-04T13:47:50.663Z,5.73
2022-11-04T13:52:55.141Z,5.70
2022-11-04T13:58:00.637Z,5.77
2022-11-04T14:03:40.998Z,6.30
2022-11-04T14:09:30.459Z,5.40
2022-11-04T14:14:33.240Z,5.33
2022-11-04T14:20:00.740Z,5.97
2022-11-04T14:25:22.805Z,5.47
2022-11-04T14:30:45.119Z,5.23
2022-11-04T14:35:49.503Z,5.63
2022-11-04T14:41:12.004Z,5.90
2022-11-04T14:46:22.554Z,6.00
2022-11-04T14:51:29.090Z,6.83
2022-11-04T14:56:32.512Z,6.77
2022-11-04T15:01:40.890Z,7.40
2022-11-04T15:06:55.334Z,7.07
2022-11-04T15:12:24.404Z,7.80
2022-11-04T15:17:30.604Z,9.40
2022-11-04T15:22:35.013Z,8.13
2022-11-04T15:27:38.336Z,7.37
2022-11-04T15:32:41.240Z,6.30
2022-11-04T15:37:46.214Z,6.33
2022-11-04T15:42:50.334Z,6.60
2022-11-04T15:48:24.015Z,8.10
2022-11-04T15:53:28.178Z,9.17
2022-11-04T15:58:34.898Z,8.37
2022-11-04T16:03:37.745Z,9.00
2022-11-04T16:08:41.902Z,10.90
2022-11-04T16:13:46.117Z,9.30
2022-11-04T16:18:53.587Z,8.50
2022-11-04T16:24:01.823Z,8.30
2022-11-04T16:29:09.268Z,10.00
2022-11-04T16:34:13.590Z,10.97
2022-11-04T16:39:17.768Z,10.37
2022-11-04T16:44:22.789Z,10.53
2022-11-04T16:49:28.258Z,11.43
2022-11-04T16:54:44.708Z,11.00
2022-11-04T16:59:57.626Z,11.00
2022-11-04T17:05:01.279Z,10.40
2022-11-04T17:10:15.394Z,9.67
2022-11-04T17:15:36.554Z,10.33
2022-11-04T17:20:41.716Z,9.37
2022-11-04T17:31:32.153Z,10.87
2022-11-04T17:36:43.473Z,9.33
2022-11-04T17:42:07.246Z,9.70
2022-11-04T17:47:10.506Z,9.67
2022-11-04T17:52:13.349Z,9.40
2022-11-04T17:57:17.473Z,8.63
2022-11-04T18:02:20.357Z,9.20
2022-11-04T18:07:23.334Z,9.17
2022-11-04T18:12:41.575Z,9.47
2022-11-04T18:17:46.259Z,9.83
2022-11-04T18:22:49.048Z,9.17
2022-11-04T18:27:53.170Z,9.07
2022-11-04T18:32:55.947Z,9.90
2022-11-04T18:37:58.747Z,10.07
2022-11-04T18:43:08.674Z,10.63
2022-11-04T18:48:12.346Z,10.80
2022-11-04T18:53:15.426Z,12.00
2022-11-04T18:58:19.626Z,11.87
2022-11-04T19:03:23.452Z,12.00
2022-11-04T19:08:26.233Z,12.47
2022-11-04T19:13:30.406Z,12.53
2022-11-04T19:18:33.192Z,13.33
2022-11-04T19:23:36.366Z,13.03
2022-11-04T19:28:48.105Z,13.60
2022-11-04T19:33:51.883Z,13.33
2022-11-04T19:38:58.426Z,13.00
2022-11-04T19:50:09.430Z,12.57
2022-11-04T19:55:12.277Z,12.63
2022-11-04T20:00:16.377Z,13.63
2022-11-04T20:05:24.909Z,14.13
2022-11-04T20:10:44.317Z,11.43
2022-11-04T20:52:29.214Z,11.83
2022-11-04T20:58:38.814Z,11.07
2022-11-04T21:22:12.099Z,9.90
2022-11-04T21:27:14.880Z,10.30
2022-11-04T21:32:17.653Z,10.63
2022-11-04T21:37:21.735Z,9.93
2022-11-04T21:42:24.544Z,10.20
2022-11-04T21:47:27.323Z,10.73
2022-11-04T21:52:31.410Z,11.83
2022-11-04T21:57:36.505Z,11.30
2022-11-04T22:02:43.420Z,19.00
2022-11-04T22:08:05.195Z,12.07
2022-11-04T22:13:08.256Z,10.83
2022-11-04T22:18:11.285Z,10.27
2022-11-04T22:23:15.389Z,12.13
2022-11-04T22:28:19.184Z,11.17
2022-11-04T22:33:23.498Z,11.87
2022-11-04T22:38:29.262Z,10.80
2022-11-04T22:43:32.524Z,12.30
2022-11-04T22:48:35.681Z,12.03
2022-11-04T22:53:40.624Z,12.33
2022-11-04T22:58:43.871Z,12.50
2022-11-04T23:03:46.726Z,13.10
2022-11-04T23:08:59.630Z,13.43
2022-11-04T23:14:21.300Z,13.70
2022-11-04T23:19:29.778Z,14.47
2022-11-04T23:24:52.355Z,13.43
2022-11-04T23:30:12.811Z,13.50
2022-11-04T23:35:33.335Z,12.30
2022-11-04T23:40:37.475Z,12.33
2022-11-04T23:45:57.739Z,12.80
2022-11-04T23:51:19.133Z,12.53
2022-11-04T23:56:41.049Z,12.20
